createdAt,value
2023-08-07T00:01:18.206Z,91.06
2023-08-07T00:03:49.822Z,90.99
2023-08-07T00:06:21.480Z,90.82
2023-08-07T00:08:53.040Z,90.74
2023-08-07T00:11:24.669Z,90.86
2023-08-07T00:13:56.270Z,90.84
2023-08-07T00:16:27.960Z,90.84
2023-08-07T00:18:59.542Z,90.85
2023-08-07T00:21:31.349Z,90.84
2023-08-07T00:24:02.959Z,90.94
2023-08-07T00:26:34.670Z,90.93
2023-08-07T00:29:06.684Z,90.94
2023-08-07T00:31:38.358Z,90.95
2023-08-07T00:34:10.848Z,90.98
2023-08-07T00:36:42.394Z,90.84
2023-08-07T00:39:12.529Z,90.82
2023-08-07T00:41:45.417Z,90.79
2023-08-07T00:44:17.250Z,90.68
2023-08-07T00:46:49.175Z,90.60
2023-08-07T00:49:22.355Z,90.73
2023-08-07T00:51:54.366Z,90.73
2023-08-07T00:54:27.392Z,90.72
2023-08-07T00:57:04.556Z,90.69
2023-08-07T00:59:36.377Z,90.62
2023-08-07T01:02:09.219Z,90.52
2023-08-07T01:04:41.639Z,90.46
2023-08-07T01:07:13.312Z,90.52
2023-08-07T01:09:44.946Z,90.59
2023-08-07T01:12:21.620Z,90.57
2023-08-07T01:15:00.586Z,90.63
2023-08-07T01:17:34.839Z,90.60
2023-08-07T01:20:08.578Z,90.68
2023-08-07T01:22:40.222Z,90.65
2023-08-07T01:25:11.872Z,90.64
2023-08-07T01:27:52.455Z,90.70
2023-08-07T01:30:32.287Z,90.58
2023-08-07T01:33:12.266Z,90.63
2023-08-07T01:35:45.855Z,90.65
2023-08-07T01:38:18.437Z,90.67
2023-08-07T01:40:50.984Z,90.75
2023-08-07T01:43:24.914Z,90.83
2023-08-07T01:45:56.514Z,90.85
2023-08-07T01:48:28.222Z,90.84
2023-08-07T01:50:59.838Z,90.92
2023-08-07T01:53:31.424Z,91.03
2023-08-07T01:56:04.012Z,91.01
2023-08-07T01:58:35.634Z,90.92
2023-08-07T02:01:07.482Z,91.04
2023-08-07T02:03:39.117Z,90.99
2023-08-07T02:06:10.833Z,91.03
2023-08-07T02:08:40.910Z,90.96
2023-08-07T02:11:12.394Z,90.83
2023-08-07T02:13:42.543Z,90.79
2023-08-07T02:16:14.370Z,90.73
2023-08-07T02:18:46.104Z,90.85
2023-08-07T02:21:18.133Z,90.83
2023-08-07T02:23:49.722Z,90.81
2023-08-07T02:26:21.399Z,90.77
2023-08-07T02:28:53.117Z,90.58
2023-08-07T02:31:24.935Z,90.62
2023-08-07T02:33:56.502Z,90.76
2023-08-07T02:36:26.591Z,90.83
2023-08-07T02:38:58.246Z,90.74
2023-08-07T02:41:29.810Z,90.91
2023-08-07T02:44:01.581Z,90.90
2023-08-07T02:46:33.340Z,90.72
2023-08-07T02:49:05.859Z,90.76
2023-08-07T02:51:37.460Z,90.69
2023-08-07T02:54:09.203Z,90.76
2023-08-07T02:56:40.869Z,90.72
2023-08-07T02:59:12.429Z,90.62
2023-08-07T03:01:44.510Z,90.68
2023-08-07T03:04:16.073Z,90.68
2023-08-07T03:06:48.026Z,90.70
2023-08-07T03:09:19.617Z,90.68
2023-08-07T03:11:51.188Z,90.71
2023-08-07T03:14:22.685Z,90.71
2023-08-07T03:16:52.879Z,90.73
2023-08-07T03:19:24.665Z,90.61
2023-08-07T03:21:56.217Z,90.82
2023-08-07T03:24:28.088Z,90.95
2023-08-07T03:26:59.904Z,91.06
2023-08-07T03:29:32.149Z,91.14
2023-08-07T03:32:03.844Z,91.17
2023-08-07T03:34:36.135Z,91.40
2023-08-07T03:37:08.731Z,91.34
2023-08-07T03:39:40.455Z,91.30
2023-08-07T03:42:11.919Z,91.46
2023-08-07T03:44:43.987Z,91.65
2023-08-07T03:47:17.245Z,91.47
2023-08-07T03:49:49.076Z,91.47
2023-08-07T03:52:20.651Z,91.82
2023-08-07T03:54:52.289Z,91.62
2023-08-07T03:57:23.830Z,91.41
2023-08-07T03:59:56.305Z,91.65
2023-08-07T04:02:28.953Z,91.52
2023-08-07T04:05:00.965Z,91.43
2023-08-07T04:07:32.491Z,91.50
2023-08-07T04:10:04.261Z,91.55
2023-08-07T04:12:36.255Z,91.70
2023-08-07T04:15:10.127Z,91.56
2023-08-07T04:17:42.498Z,91.64
2023-08-07T04:20:14.535Z,91.63
2023-08-07T04:22:46.405Z,91.52
2023-08-07T04:25:18.293Z,91.59
2023-08-07T04:27:49.863Z,91.80
2023-08-07T04:30:21.431Z,91.62
2023-08-07T04:32:53.093Z,91.77
2023-08-07T04:35:25.029Z,91.82
2023-08-07T04:37:56.734Z,91.72
2023-08-07T04:40:28.380Z,91.64
2023-08-07T04:43:00.043Z,91.50
2023-08-07T04:45:31.613Z,91.67
2023-08-07T04:48:01.669Z,91.62
2023-08-07T04:50:34.079Z,91.39
2023-08-07T04:53:06.110Z,91.46
2023-08-07T04:55:37.658Z,91.44
2023-08-07T04:58:07.762Z,91.27
2023-08-07T05:00:39.392Z,91.07
2023-08-07T05:03:11.158Z,90.92
2023-08-07T05:05:43.078Z,90.96
2023-08-07T05:08:14.651Z,91.03
2023-08-07T05:10:46.157Z,90.93
2023-08-07T05:13:16.299Z,91.01
2023-08-07T05:15:50.696Z,90.88
2023-08-07T05:18:22.264Z,90.88
2023-08-07T05:20:53.994Z,90.94
2023-08-07T05:23:25.712Z,90.77
2023-08-07T05:25:57.312Z,91.04
2023-08-07T05:28:29.695Z,90.76
2023-08-07T05:31:01.219Z,90.92
2023-08-07T05:33:32.874Z,90.87
2023-08-07T05:36:06.584Z,90.80
2023-08-07T05:38:38.552Z,90.83
2023-08-07T05:41:10.711Z,91.01
2023-08-07T05:43:42.181Z,90.73
2023-08-07T05:46:13.708Z,90.54
2023-08-07T05:48:45.316Z,90.54
2023-08-07T05:51:16.861Z,90.44
2023-08-07T05:53:48.411Z,90.39
2023-08-07T05:56:20.180Z,90.18
2023-08-07T05:58:51.823Z,89.73
2023-08-07T06:01:24.416Z,89.63
2023-08-07T06:03:56.094Z,89.82
2023-08-07T06:06:29.163Z,89.96
2023-08-07T06:09:01.241Z,90.09
2023-08-07T06:11:33.169Z,89.80
2023-08-07T06:14:04.976Z,89.94
2023-08-07T06:16:36.800Z,90.04
2023-08-07T06:19:20.916Z,90.25
2023-08-07T06:21:57.579Z,90.16
2023-08-07T06:24:29.703Z,90.12
2023-08-07T06:27:01.360Z,89.97
2023-08-07T06:29:32.909Z,89.73
2023-08-07T06:32:05.318Z,89.74
2023-08-07T06:34:39.681Z,90.00
2023-08-07T06:37:11.337Z,90.38
2023-08-07T06:39:43.002Z,90.21
2023-08-07T06:42:14.517Z,89.71
2023-08-07T06:44:47.874Z,89.30
2023-08-07T06:47:19.550Z,88.95
2023-08-07T06:49:51.257Z,89.02
2023-08-07T06:52:22.891Z,88.78
2023-08-07T06:54:54.633Z,88.76
2023-08-07T06:57:26.191Z,88.99
2023-08-07T06:59:57.774Z,88.99
2023-08-07T07:02:29.379Z,89.34
2023-08-07T07:05:01.315Z,89.25
2023-08-07T07:07:33.017Z,88.95
2023-08-07T07:10:04.922Z,88.92
2023-08-07T07:12:36.677Z,89.05
2023-08-07T07:15:10.167Z,89.16
2023-08-07T07:17:41.790Z,89.02
2023-08-07T07:20:14.857Z,89.05
2023-08-07T07:22:46.391Z,89.18
2023-08-07T07:25:16.609Z,89.41
2023-08-07T07:27:48.236Z,89.41
2023-08-07T07:30:19.848Z,89.63
2023-08-07T07:32:52.216Z,89.23
2023-08-07T07:35:23.829Z,89.31
2023-08-07T07:37:55.392Z,89.37
2023-08-07T07:40:25.509Z,89.08
2023-08-07T07:42:57.106Z,89.24
2023-08-07T07:45:28.750Z,89.35
2023-08-07T07:48:00.375Z,89.16
2023-08-07T07:50:32.017Z,89.20
2023-08-07T07:53:03.654Z,89.49
2023-08-07T07:55:35.452Z,89.74
2023-08-07T07:58:07.367Z,89.94
2023-08-07T08:00:38.976Z,89.95
2023-08-07T08:03:11.386Z,89.86
2023-08-07T08:05:43.224Z,90.09
2023-08-07T08:08:14.825Z,89.73
2023-08-07T08:10:48.330Z,89.60
2023-08-07T08:13:20.140Z,89.56
2023-08-07T08:15:51.770Z,89.72
2023-08-07T08:18:23.535Z,89.46
2023-08-07T08:20:56.175Z,89.50
2023-08-07T08:23:27.723Z,89.51
2023-08-07T08:25:59.383Z,89.63
2023-08-07T08:28:31.187Z,89.52
2023-08-07T08:31:02.758Z,89.41
2023-08-07T08:33:34.441Z,89.54
2023-08-07T08:36:06.714Z,89.61
2023-08-07T08:38:38.302Z,89.69
2023-08-07T08:41:11.328Z,90.01
2023-08-07T08:43:45.892Z,90.14
2023-08-07T08:46:21.159Z,90.28
2023-08-07T08:48:58.677Z,90.28
2023-08-07T08:51:30.502Z,90.46
2023-08-07T08:54:03.600Z,90.57
2023-08-07T08:56:35.497Z,89.91
2023-08-07T08:59:07.554Z,89.94
2023-08-07T09:01:40.571Z,90.04
2023-08-07T09:04:12.509Z,90.35
2023-08-07T09:06:44.693Z,90.47
2023-08-07T09:09:18.641Z,90.10
2023-08-07T09:11:50.823Z,89.93
2023-08-07T09:14:26.595Z,89.99
2023-08-07T09:17:00.654Z,89.92
2023-08-07T09:19:32.945Z,89.89
2023-08-07T09:22:04.790Z,89.61
2023-08-07T09:24:36.340Z,89.12
2023-08-07T09:27:10.494Z,88.86
2023-08-07T09:29:45.255Z,88.95
2023-08-07T09:32:19.564Z,89.42
2023-08-07T09:34:53.299Z,89.58
2023-08-07T09:37:25.404Z,89.32
2023-08-07T09:39:56.960Z,89.09
2023-08-07T09:42:32.400Z,89.20
2023-08-07T09:45:05.113Z,88.95
2023-08-07T09:47:37.292Z,88.92
2023-08-07T09:50:17.302Z,88.70
2023-08-07T09:52:51.717Z,89.01
2023-08-07T09:55:23.437Z,88.86
2023-08-07T09:57:55.827Z,88.36
2023-08-07T10:00:27.688Z,88.60
2023-08-07T10:02:59.877Z,88.46
2023-08-07T10:05:32.226Z,88.09
2023-08-07T10:08:05.411Z,88.27
2023-08-07T10:10:37.230Z,88.05
2023-08-07T10:13:09.788Z,87.26
2023-08-07T10:15:43.179Z,87.45
2023-08-07T10:18:14.977Z,86.34
2023-08-07T10:20:47.235Z,84.41
2023-08-07T10:23:20.103Z,85.67
2023-08-07T10:25:54.258Z,86.20
2023-08-07T10:28:29.974Z,87.27
2023-08-07T10:31:02.771Z,86.98
2023-08-07T10:33:35.826Z,87.57
2023-08-07T10:36:13.635Z,87.81
2023-08-07T10:38:45.325Z,88.17
2023-08-07T10:41:20.059Z,88.02
2023-08-07T10:43:51.677Z,87.90
2023-08-07T10:46:25.642Z,88.04
2023-08-07T10:48:59.510Z,87.86
2023-08-07T10:51:33.456Z,88.04
2023-08-07T10:54:06.135Z,88.21
2023-08-07T10:56:39.076Z,87.91
2023-08-07T10:59:14.505Z,88.38
2023-08-07T11:01:52.596Z,88.59
2023-08-07T11:04:27.286Z,88.48
2023-08-07T11:06:59.342Z,88.84
2023-08-07T11:09:31.192Z,88.66
2023-08-07T11:12:03.060Z,88.79
2023-08-07T11:14:35.100Z,88.67
2023-08-07T11:17:08.478Z,88.73
2023-08-07T11:19:40.667Z,88.18
2023-08-07T11:22:12.562Z,88.63
2023-08-07T11:24:44.397Z,88.69
2023-08-07T11:27:15.981Z,88.79
2023-08-07T11:29:51.182Z,88.64
2023-08-07T11:32:24.383Z,89.01
2023-08-07T11:34:55.997Z,88.61
2023-08-07T11:37:27.615Z,88.98
2023-08-07T11:40:05.091Z,89.22
2023-08-07T11:42:36.686Z,88.25
2023-08-07T11:45:10.839Z,88.32
2023-08-07T11:47:42.510Z,88.36
2023-08-07T11:50:14.880Z,87.82
2023-08-07T11:52:47.025Z,87.29
2023-08-07T11:55:19.472Z,87.65
2023-08-07T11:57:51.348Z,87.03
2023-08-07T12:00:27.963Z,87.46
2023-08-07T12:02:59.507Z,87.29
2023-08-07T12:05:39.762Z,87.38
2023-08-07T12:08:13.398Z,87.85
2023-08-07T12:10:45.528Z,86.47
2023-08-07T12:13:17.171Z,87.13
2023-08-07T12:15:48.906Z,87.15
2023-08-07T12:18:22.230Z,87.17
2023-08-07T12:20:54.880Z,86.89
2023-08-07T12:23:26.484Z,87.34
2023-08-07T12:25:58.359Z,87.39
2023-08-07T12:28:30.045Z,87.24
2023-08-07T12:31:01.617Z,87.01
2023-08-07T12:33:33.526Z,86.93
2023-08-07T12:38:50.768Z,86.90
2023-08-07T12:43:57.017Z,87.29
2023-08-07T12:49:04.235Z,87.43
2023-08-07T12:51:35.890Z,87.24
2023-08-07T12:54:07.583Z,86.94
2023-08-07T12:56:39.241Z,87.34
2023-08-07T12:59:10.829Z,87.62
2023-08-07T13:01:42.386Z,87.42
2023-08-07T13:04:16.361Z,86.76
2023-08-07T13:06:50.694Z,87.23
2023-08-07T13:09:22.601Z,86.83
2023-08-07T13:11:54.200Z,86.92
2023-08-07T13:14:25.764Z,87.36
2023-08-07T13:16:57.750Z,87.15
2023-08-07T13:19:29.617Z,87.20
2023-08-07T13:21:59.903Z,86.73
2023-08-07T13:24:31.452Z,87.15
2023-08-07T13:27:04.521Z,87.23
2023-08-07T13:29:36.742Z,86.93
2023-08-07T13:32:10.678Z,87.19
2023-08-07T13:34:42.345Z,87.24
2023-08-07T13:37:13.930Z,86.78
2023-08-07T13:39:45.464Z,87.66
2023-08-07T13:42:17.121Z,87.73
2023-08-07T13:44:48.736Z,87.53
2023-08-07T13:47:21.805Z,87.61
2023-08-07T13:49:54.032Z,87.45
2023-08-07T13:52:25.747Z,88.24
2023-08-07T13:54:57.260Z,88.85
2023-08-07T13:57:28.899Z,88.13
2023-08-07T14:00:00.580Z,87.57
2023-08-07T14:02:33.039Z,88.67
2023-08-07T14:05:05.439Z,88.31
2023-08-07T14:07:37.106Z,87.87
2023-08-07T14:10:10.171Z,88.24
2023-08-07T14:12:41.793Z,88.23
2023-08-07T14:15:14.074Z,87.59
2023-08-07T14:17:45.651Z,88.49
2023-08-07T14:20:17.364Z,88.48
2023-08-07T14:22:48.969Z,87.56
2023-08-07T14:25:22.470Z,87.61
2023-08-07T14:27:54.947Z,87.37
2023-08-07T14:30:26.829Z,87.37
2023-08-07T14:32:58.427Z,87.79
2023-08-07T14:35:30.153Z,87.72
2023-08-07T14:38:01.820Z,88.31
2023-08-07T14:40:33.552Z,87.55
2023-08-07T14:43:05.203Z,87.39
2023-08-07T14:45:38.388Z,87.44
2023-08-07T14:48:10.048Z,88.11
2023-08-07T14:50:41.610Z,87.74
2023-08-07T14:53:13.160Z,87.50
2023-08-07T14:55:45.617Z,86.59
2023-08-07T14:58:17.486Z,86.17
2023-08-07T15:00:50.745Z,86.10
2023-08-07T15:03:22.335Z,85.91
2023-08-07T15:05:53.973Z,85.74
2023-08-07T15:08:25.609Z,85.39
2023-08-07T15:10:57.200Z,85.46
2023-08-07T15:13:28.951Z,85.60
2023-08-07T15:16:00.642Z,84.84
2023-08-07T15:18:32.361Z,85.05
2023-08-07T15:21:04.016Z,84.82
2023-08-07T15:23:35.795Z,85.04
2023-08-07T15:26:07.607Z,84.66
2023-08-07T15:28:39.175Z,84.65
2023-08-07T15:31:10.898Z,85.41
2023-08-07T15:33:43.502Z,85.91
2023-08-07T15:36:15.161Z,86.05
2023-08-07T15:38:46.968Z,85.68
2023-08-07T15:41:18.903Z,86.04
2023-08-07T15:43:51.341Z,86.13
2023-08-07T15:46:22.984Z,86.11
2023-08-07T15:48:56.334Z,86.35
2023-08-07T15:51:28.090Z,86.55
2023-08-07T15:53:59.860Z,85.95
2023-08-07T15:56:31.370Z,85.48
2023-08-07T15:59:02.989Z,84.65
2023-08-07T16:01:34.760Z,84.72
2023-08-07T16:04:06.799Z,84.38
2023-08-07T16:06:39.463Z,84.73
2023-08-07T16:09:11.154Z,85.30
2023-08-07T16:11:42.775Z,85.07
2023-08-07T16:14:14.602Z,85.55
2023-08-07T16:16:46.284Z,85.31
2023-08-07T16:19:18.007Z,85.03
2023-08-07T16:21:49.757Z,84.57
2023-08-07T16:24:21.401Z,84.89
2023-08-07T16:26:53.084Z,84.68
2023-08-07T16:29:24.696Z,84.67
2023-08-07T16:31:57.355Z,84.62
2023-08-07T16:34:29.249Z,84.60
2023-08-07T16:37:01.314Z,85.17
2023-08-07T16:39:33.199Z,85.29
2023-08-07T16:42:05.380Z,85.69
2023-08-07T16:44:37.018Z,85.46
2023-08-07T16:47:09.078Z,85.46
2023-08-07T16:49:41.432Z,85.53
2023-08-07T16:52:13.041Z,85.17
2023-08-07T16:54:45.031Z,85.14
2023-08-07T16:57:16.651Z,85.70
2023-08-07T16:59:48.713Z,85.67
2023-08-07T17:02:20.354Z,85.71
2023-08-07T17:04:51.938Z,85.89
2023-08-07T17:07:23.556Z,85.28
2023-08-07T17:09:55.084Z,85.96
2023-08-07T17:12:26.740Z,86.14
2023-08-07T17:14:58.292Z,86.11
2023-08-07T17:17:29.953Z,86.49
2023-08-07T17:20:01.690Z,86.60
2023-08-07T17:22:33.593Z,86.52
2023-08-07T17:25:06.170Z,86.24
2023-08-07T17:27:37.983Z,86.24
2023-08-07T17:30:11.482Z,86.44
2023-08-07T17:32:43.298Z,86.91
2023-08-07T17:35:14.918Z,86.80
2023-08-07T17:37:46.580Z,86.78
2023-08-07T17:40:18.330Z,86.70
2023-08-07T17:42:49.947Z,86.67
2023-08-07T17:45:21.666Z,86.93
2023-08-07T17:47:54.631Z,86.95
2023-08-07T17:50:26.338Z,86.86
2023-08-07T17:52:58.096Z,86.65
2023-08-07T17:55:31.170Z,86.73
2023-08-07T17:58:03.940Z,86.71
2023-08-07T18:00:35.703Z,86.70
2023-08-07T18:03:08.697Z,86.51
2023-08-07T18:05:40.696Z,86.82
2023-08-07T18:08:12.383Z,86.98
2023-08-07T18:10:43.979Z,87.14
2023-08-07T18:13:15.508Z,87.18
2023-08-07T18:15:47.202Z,87.59
2023-08-07T18:18:19.064Z,87.53
2023-08-07T18:20:50.670Z,87.87
2023-08-07T18:23:22.565Z,87.64
2023-08-07T18:25:54.504Z,87.70
2023-08-07T18:28:26.219Z,87.78
2023-08-07T18:30:57.989Z,88.02
2023-08-07T18:33:29.743Z,88.04
2023-08-07T18:36:01.846Z,88.29
2023-08-07T18:38:33.409Z,88.23
2023-08-07T18:41:07.059Z,88.12
2023-08-07T18:43:39.435Z,88.62
2023-08-07T18:46:12.815Z,88.32
2023-08-07T18:48:44.517Z,88.26
2023-08-07T18:51:16.181Z,88.25
2023-08-07T18:53:48.081Z,88.36
2023-08-07T18:56:20.063Z,88.39
2023-08-07T18:58:52.961Z,88.52
2023-08-07T19:01:24.864Z,88.39
2023-08-07T19:03:56.747Z,88.60
2023-08-07T19:06:30.286Z,88.65
2023-08-07T19:09:01.920Z,88.78
2023-08-07T19:11:33.691Z,88.89
2023-08-07T19:14:06.345Z,89.12
2023-08-07T19:16:38.067Z,88.95
2023-08-07T19:19:09.814Z,88.89
2023-08-07T19:21:41.708Z,88.88
2023-08-07T19:24:16.066Z,89.00
2023-08-07T19:26:48.040Z,89.04
2023-08-07T19:29:19.655Z,89.14
2023-08-07T19:31:51.335Z,89.25
2023-08-07T19:34:23.182Z,89.32
2023-08-07T19:36:59.047Z,89.49
2023-08-07T19:39:31.049Z,89.70
2023-08-07T19:42:03.188Z,89.54
2023-08-07T19:44:38.633Z,89.52
2023-08-07T19:47:14.235Z,89.62
2023-08-07T19:49:54.021Z,89.68
2023-08-07T19:52:27.883Z,89.74
2023-08-07T19:54:59.543Z,89.86
2023-08-07T19:57:31.672Z,90.76
2023-08-07T20:00:05.593Z,90.16
2023-08-07T20:02:37.467Z,89.86
2023-08-07T20:05:10.553Z,89.83
2023-08-07T20:07:42.223Z,89.67
2023-08-07T20:10:14.653Z,89.66
2023-08-07T20:12:47.519Z,89.60
2023-08-07T20:15:20.310Z,89.58
2023-08-07T20:17:53.720Z,89.46
2023-08-07T20:20:26.082Z,89.42
2023-08-07T20:22:57.813Z,89.49
2023-08-07T20:25:30.803Z,89.62
2023-08-07T20:28:02.362Z,89.55
2023-08-07T20:30:34.349Z,89.49
2023-08-07T20:33:06.866Z,89.47
2023-08-07T20:35:38.446Z,89.38
2023-08-07T20:38:10.151Z,89.44
2023-08-07T20:40:41.741Z,89.55
2023-08-07T20:43:13.432Z,89.42
2023-08-07T20:45:45.946Z,89.42
2023-08-07T20:48:18.771Z,89.39
2023-08-07T20:50:50.456Z,89.43
2023-08-07T20:53:23.270Z,89.51
2023-08-07T20:55:54.919Z,89.69
2023-08-07T20:58:26.820Z,89.73
2023-08-07T21:00:58.861Z,89.66
2023-08-07T21:03:30.716Z,89.62
2023-08-07T21:06:02.726Z,89.48
2023-08-07T21:08:34.393Z,89.34
2023-08-07T21:11:05.964Z,89.37
2023-08-07T21:13:39.075Z,89.62
2023-08-07T21:16:10.779Z,89.66
2023-08-07T21:18:42.462Z,89.57
2023-08-07T21:21:15.099Z,89.53
2023-08-07T21:23:46.794Z,89.49
2023-08-07T21:26:19.748Z,89.39
2023-08-07T21:28:51.486Z,89.44
2023-08-07T21:31:23.305Z,89.50
2023-08-07T21:33:55.880Z,89.37
2023-08-07T21:36:27.948Z,89.49
2023-08-07T21:38:59.948Z,89.68
2023-08-07T21:41:32.114Z,89.60
2023-08-07T21:44:03.842Z,89.60
2023-08-07T21:46:35.530Z,89.65
2023-08-07T21:49:14.969Z,89.67
2023-08-07T21:51:47.128Z,89.81
2023-08-07T21:54:18.846Z,89.77
2023-08-07T21:56:54.911Z,89.82
2023-08-07T22:02:55.632Z,89.75
2023-08-07T22:05:30.467Z,89.84
2023-08-07T22:08:02.567Z,89.82
2023-08-07T22:10:34.273Z,89.76
2023-08-07T22:13:07.099Z,89.93
2023-08-07T22:15:39.042Z,89.85
2023-08-07T22:18:10.622Z,89.70
2023-08-07T22:20:43.279Z,89.67
2023-08-07T22:23:14.837Z,89.73
2023-08-07T22:25:46.451Z,89.92
2023-08-07T22:28:18.120Z,89.91
2023-08-07T22:30:49.794Z,89.90
2023-08-07T22:33:21.453Z,89.94
2023-08-07T22:35:53.219Z,90.02
2023-08-07T22:38:24.822Z,90.08
2023-08-07T22:40:56.675Z,90.08
2023-08-07T22:43:28.307Z,90.15
2023-08-07T22:46:00.303Z,90.14
2023-08-07T22:48:33.037Z,90.09
2023-08-07T22:51:05.995Z,90.09
2023-08-07T22:53:37.706Z,89.90
2023-08-07T22:56:09.242Z,90.02
2023-08-07T22:58:40.868Z,89.99
2023-08-07T23:01:12.450Z,89.97
2023-08-07T23:03:44.004Z,89.96
2023-08-07T23:06:14.145Z,90.00
2023-08-07T23:08:45.672Z,89.86
2023-08-07T23:11:17.288Z,89.98
2023-08-07T23:13:48.918Z,90.01
2023-08-07T23:16:20.682Z,90.07
2023-08-07T23:18:52.655Z,90.04
2023-08-07T23:21:24.136Z,89.97
2023-08-07T23:23:54.287Z,89.84
2023-08-07T23:26:25.850Z,89.66
2023-08-07T23:28:56.105Z,89.73
2023-08-07T23:31:28.717Z,89.60
2023-08-07T23:34:00.354Z,89.52
2023-08-07T23:36:32.186Z,89.57
2023-08-07T23:39:04.101Z,89.70
2023-08-07T23:41:35.659Z,89.72
2023-08-07T23:44:05.878Z,89.60
2023-08-07T23:46:37.435Z,89.60
2023-08-07T23:49:09.101Z,89.72
2023-08-07T23:51:41.767Z,89.85
2023-08-07T23:54:13.379Z,89.92
2023-08-07T23:56:45.015Z,89.85
2023-08-07T23:59:16.645Z,89.76
